Time;durP1;ratioP1;P1;durP2;ratioP2;P2;SDS_P1;SDS_P2;PMS_P1;PMS_P2;Temp;Humidity;BMP_temperature;BMP_pressure;BME280_temperature;BME280_humidity;BME280_pressure;Samples;Min_cycle;Max_cycle;Signal;HPM_P1;HPM_P2
2022/07/25 00:00:09;;;;;;;7.87;7.27;;;;;;;;;;5052615;28;20489;-84
2022/07/25 00:02:35;;;;;;;9.10;8.45;;;;;;;;;;5050077;28;20396;-85
2022/07/25 00:05:01;;;;;;;8.98;8.38;;;;;;;;;;5050121;28;20831;-85
2022/07/25 00:07:28;;;;;;;8.40;7.80;;;;;;;;;;5049836;28;20388;-84
2022/07/25 00:09:54;;;;;;;8.45;7.75;;;;;;;;;;5050075;28;20505;-85
2022/07/25 00:12:20;;;;;;;8.70;8.10;;;;;;;;;;5036284;28;20382;-84
2022/07/25 00:14:47;;;;;;;8.57;8.05;;;;;;;;;;5050398;28;20374;-86
2022/07/25 00:17:13;;;;;;;8.73;8.13;;;;;;;;;;5050546;28;20942;-84
2022/07/25 00:19:39;;;;;;;8.30;7.78;;;;;;;;;;5046758;28;20401;-84
2022/07/25 00:22:05;;;;;;;8.23;7.73;;;;;;;;;;5051862;28;20389;-84
2022/07/25 00:24:31;;;;;;;8.73;8.05;;;;;;;;;;5051872;28;20377;-85
2022/07/25 00:26:57;;;;;;;8.57;7.97;;;;;;;;;;5049868;28;20925;-85
2022/07/25 00:29:23;;;;;;;8.48;7.78;;;;;;;;;;5049790;28;20412;-84
2022/07/25 00:31:49;;;;;;;8.52;7.93;;;;;;;;;;5049915;28;20377;-84
2022/07/25 00:34:15;;;;;;;9.02;8.23;;;;;;;;;;5049731;28;20430;-84
2022/07/25 00:36:41;;;;;;;8.37;7.77;;;;;;;;;;5049799;28;21090;-85
2022/07/25 00:39:07;;;;;;;8.77;8.17;;;;;;;;;;5050008;28;20377;-85
2022/07/25 00:41:33;;;;;;;8.77;8.18;;;;;;;;;;5050927;28;20854;-85
2022/07/25 00:43:59;;;;;;;8.52;7.93;;;;;;;;;;5051856;28;20385;-85
2022/07/25 00:46:25;;;;;;;8.75;8.05;;;;;;;;;;5051051;28;20389;-84
2022/07/25 00:48:51;;;;;;;8.52;8.00;;;;;;;;;;5045635;28;20856;-85
2022/07/25 00:51:17;;;;;;;7.93;7.43;;;;;;;;;;5052918;28;20723;-84
2022/07/25 00:53:44;;;;;;;8.40;7.80;;;;;;;;;;5055180;28;20850;-84
2022/07/25 00:56:10;;;;;;;8.77;8.13;;;;;;;;;;5055567;28;20394;-85
2022/07/25 00:58:36;;;;;;;8.60;8.00;;;;;;;;;;5054587;28;20742;-85
2022/07/25 01:01:03;;;;;;;8.63;8.02;;;;;;;;;;5053001;28;20389;-85
2022/07/25 01:03:29;;;;;;;8.55;7.90;;;;;;;;;;5055246;28;20442;-85
2022/07/25 01:05:55;;;;;;;8.70;8.00;;;;;;;;;;5055366;28;20785;-85
2022/07/25 01:08:21;;;;;;;8.82;8.23;;;;;;;;;;5055302;28;20472;-85
2022/07/25 01:10:48;;;;;;;8.32;7.75;;;;;;;;;;5055228;28;20404;-85
2022/07/25 01:13:14;;;;;;;8.90;8.38;;;;;;;;;;5055287;28;20450;-85
2022/07/25 01:15:40;;;;;;;9.13;8.52;;;;;;;;;;5054713;28;20377;-85
2022/07/25 01:18:06;;;;;;;8.63;8.07;;;;;;;;;;5055284;28;20409;-85
2022/07/25 01:20:33;;;;;;;8.65;8.05;;;;;;;;;;5055036;28;20750;-85
2022/07/25 01:22:59;;;;;;;9.20;8.50;;;;;;;;;;5055103;28;20464;-85
2022/07/25 01:25:26;;;;;;;8.75;8.13;;;;;;;;;;5055191;28;20428;-86
2022/07/25 01:27:53;;;;;;;8.68;8.10;;;;;;;;;;5054995;28;20754;-85
2022/07/25 01:30:20;;;;;;;8.52;7.97;;;;;;;;;;5054894;28;21008;-85
2022/07/25 01:32:46;;;;;;;8.77;7.97;;;;;;;;;;5054853;28;20405;-85
2022/07/25 01:35:13;;;;;;;8.45;7.82;;;;;;;;;;5054905;28;20382;-84
2022/07/25 01:37:39;;;;;;;9.05;8.45;;;;;;;;;;5036804;28;20822;-85
2022/07/25 01:40:06;;;;;;;8.65;8.05;;;;;;;;;;5055096;28;20385;-85
2022/07/25 01:42:32;;;;;;;8.60;8.00;;;;;;;;;;5054833;28;20384;-85
2022/07/25 01:44:58;;;;;;;8.27;7.78;;;;;;;;;;5054874;28;20384;-85
2022/07/25 01:47:24;;;;;;;8.85;8.25;;;;;;;;;;5046049;28;20450;-85
2022/07/25 01:49:50;;;;;;;8.88;8.27;;;;;;;;;;5040524;28;20766;-84
2022/07/25 01:52:16;;;;;;;8.17;7.63;;;;;;;;;;5054591;28;20464;-85
2022/07/25 01:54:42;;;;;;;8.57;8.07;;;;;;;;;;5054460;28;20388;-85
2022/07/25 01:57:08;;;;;;;9.27;8.60;;;;;;;;;;5054613;28;20401;-85
2022/07/25 01:59:39;;;;;;;9.10;8.55;;;;;;;;;;5053474;28;20373;-85
2022/07/25 02:02:05;;;;;;;9.40;8.63;;;;;;;;;;5054155;28;20431;-84
2022/07/25 02:04:32;;;;;;;8.93;8.37;;;;;;;;;;5054533;28;20472;-85
2022/07/25 02:06:58;;;;;;;9.40;8.70;;;;;;;;;;5036327;28;20852;-85
2022/07/25 02:09:24;;;;;;;9.23;8.63;;;;;;;;;;5050905;28;20895;-85
2022/07/25 02:11:50;;;;;;;9.35;8.65;;;;;;;;;;5039144;28;20407;-85
2022/07/25 02:14:16;;;;;;;9.18;8.48;;;;;;;;;;5052211;28;20911;-85
2022/07/25 02:16:42;;;;;;;9.25;8.60;;;;;;;;;;5052503;28;20377;-85
2022/07/25 02:19:08;;;;;;;9.38;8.77;;;;;;;;;;5038768;28;20385;-85
2022/07/25 02:21:34;;;;;;;9.23;8.53;;;;;;;;;;5054034;28;20606;-85
2022/07/25 02:24:00;;;;;;;8.85;8.25;;;;;;;;;;5053812;28;20809;-85
2022/07/25 02:26:26;;;;;;;9.77;9.13;;;;;;;;;;5053122;28;20393;-86
2022/07/25 02:28:52;;;;;;;9.10;8.48;;;;;;;;;;5053749;28;20472;-86
2022/07/25 02:31:18;;;;;;;9.13;8.52;;;;;;;;;;5053881;28;20920;-85
2022/07/25 02:33:44;;;;;;;8.55;7.95;;;;;;;;;;5053836;28;20443;-85
2022/07/25 02:36:11;;;;;;;8.82;8.23;;;;;;;;;;5053611;28;20873;-85
2022/07/25 02:38:37;;;;;;;9.52;8.85;;;;;;;;;;5053668;28;20389;-85
2022/07/25 02:41:04;;;;;;;9.23;8.40;;;;;;;;;;5053653;28;20461;-85
2022/07/25 02:43:30;;;;;;;8.63;8.10;;;;;;;;;;5048615;28;20381;-85
2022/07/25 02:45:56;;;;;;;10.40;9.70;;;;;;;;;;5053465;28;20384;-85
2022/07/25 02:48:22;;;;;;;9.05;8.35;;;;;;;;;;5044829;28;20377;-85
2022/07/25 02:50:48;;;;;;;8.32;7.82;;;;;;;;;;5050135;28;20424;-85
2022/07/25 02:53:14;;;;;;;9.30;8.70;;;;;;;;;;5053400;28;20397;-85
2022/07/25 02:55:40;;;;;;;9.52;8.73;;;;;;;;;;5041394;28;20383;-84
2022/07/25 02:58:06;;;;;;;9.25;8.65;;;;;;;;;;5051413;28;20774;-84
2022/07/25 03:00:32;;;;;;;8.53;7.93;;;;;;;;;;5053253;28;20467;-85
2022/07/25 03:02:58;;;;;;;9.10;8.50;;;;;;;;;;5053419;28;20408;-85
2022/07/25 03:05:24;;;;;;;8.73;8.13;;;;;;;;;;5031991;28;20401;-85
2022/07/25 03:07:50;;;;;;;9.38;8.68;;;;;;;;;;5053129;28;20935;-85
2022/07/25 03:10:16;;;;;;;8.70;8.13;;;;;;;;;;5053307;28;20402;-85
2022/07/25 03:12:43;;;;;;;8.87;8.27;;;;;;;;;;5051769;28;20381;-85
2022/07/25 03:15:11;;;;;;;8.90;8.30;;;;;;;;;;5052567;28;20858;-85
2022/07/25 03:17:37;;;;;;;8.98;8.38;;;;;;;;;;5039559;28;20743;-85
2022/07/25 03:20:04;;;;;;;9.23;8.63;;;;;;;;;;5052915;28;20389;-85
2022/07/25 03:22:30;;;;;;;10.07;9.38;;;;;;;;;;5052839;28;20385;-86
2022/07/25 03:24:56;;;;;;;9.05;8.45;;;;;;;;;;5052822;28;20431;-86
2022/07/25 03:27:22;;;;;;;9.57;8.98;;;;;;;;;;5052602;28;20377;-86
2022/07/25 03:29:48;;;;;;;9.60;8.93;;;;;;;;;;5052736;28;20798;-86
2022/07/25 03:32:14;;;;;;;9.65;8.95;;;;;;;;;;5052653;28;20434;-86
2022/07/25 03:34:40;;;;;;;9.40;8.77;;;;;;;;;;5052681;28;20381;-86
2022/07/25 03:37:06;;;;;;;8.90;8.30;;;;;;;;;;5052523;28;20862;-85
2022/07/25 03:39:32;;;;;;;10.00;9.20;;;;;;;;;;5052544;28;20392;-86
2022/07/25 03:41:58;;;;;;;9.57;8.88;;;;;;;;;;5052576;28;20750;-86
2022/07/25 03:44:25;;;;;;;10.07;9.30;;;;;;;;;;5052443;28;20378;-85
2022/07/25 03:46:51;;;;;;;9.27;8.57;;;;;;;;;;5048436;28;20403;-85
2022/07/25 03:49:17;;;;;;;9.38;8.77;;;;;;;;;;5047658;28;20537;-85
2022/07/25 03:51:43;;;;;;;9.30;8.60;;;;;;;;;;5052369;28;20464;-86
2022/07/25 03:54:13;;;;;;;9.40;8.73;;;;;;;;;;5052404;28;20431;-85
2022/07/25 03:56:40;;;;;;;9.48;8.88;;;;;;;;;;5038276;28;20408;-86
2022/07/25 03:59:06;;;;;;;10.02;9.32;;;;;;;;;;5052280;28;20382;-85
2022/07/25 04:01:32;;;;;;;10.30;9.50;;;;;;;;;;5052116;28;20435;-85
2022/07/25 04:03:59;;;;;;;9.70;9.10;;;;;;;;;;5052184;28;20451;-86
2022/07/25 04:06:25;;;;;;;9.70;9.02;;;;;;;;;;5052139;28;20460;-86
2022/07/25 04:08:51;;;;;;;9.90;9.10;;;;;;;;;;5052043;28;20908;-85
2022/07/25 04:11:17;;;;;;;10.18;9.38;;;;;;;;;;5041540;28;20375;-85
2022/07/25 04:13:43;;;;;;;9.43;8.68;;;;;;;;;;5048892;28;20377;-85
2022/07/25 04:16:09;;;;;;;9.95;9.15;;;;;;;;;;5033585;28;20544;-85
2022/07/25 04:18:36;;;;;;;9.83;9.13;;;;;;;;;;5052021;28;20392;-85
2022/07/25 04:21:02;;;;;;;9.65;9.05;;;;;;;;;;5051953;28;20393;-86
2022/07/25 04:23:28;;;;;;;9.90;9.20;;;;;;;;;;5051605;28;20386;-85
2022/07/25 04:25:55;;;;;;;9.80;9.00;;;;;;;;;;5051268;28;20486;-86
2022/07/25 04:28:21;;;;;;;9.45;8.75;;;;;;;;;;5050968;28;20435;-85
2022/07/25 04:30:47;;;;;;;9.38;8.68;;;;;;;;;;5050503;28;20404;-85
2022/07/25 04:33:14;;;;;;;10.05;9.25;;;;;;;;;;5047997;28;20381;-86
2022/07/25 04:35:40;;;;;;;10.30;9.52;;;;;;;;;;5051036;28;20369;-85
2022/07/25 04:38:06;;;;;;;9.68;9.07;;;;;;;;;;5051899;28;20378;-85
2022/07/25 04:40:32;;;;;;;9.83;9.03;;;;;;;;;;5051901;28;20385;-85
2022/07/25 04:42:58;;;;;;;9.50;8.80;;;;;;;;;;5051725;28;20389;-86
2022/07/25 04:45:24;;;;;;;10.27;9.57;;;;;;;;;;5048480;28;20389;-85
2022/07/25 04:47:50;;;;;;;10.40;9.50;;;;;;;;;;5043020;28;20382;-85
2022/07/25 04:50:16;;;;;;;10.05;9.35;;;;;;;;;;5051858;28;20417;-86
2022/07/25 04:52:42;;;;;;;10.27;9.57;;;;;;;;;;5051499;28;20464;-85
2022/07/25 04:55:09;;;;;;;10.73;9.93;;;;;;;;;;5051709;28;20452;-86
2022/07/25 04:57:35;;;;;;;10.20;9.50;;;;;;;;;;5051637;28;20378;-86
2022/07/25 05:00:02;;;;;;;10.02;9.25;;;;;;;;;;5051773;28;20488;-85
2022/07/25 05:02:29;;;;;;;10.33;9.53;;;;;;;;;;5050985;28;20401;-85
2022/07/25 05:04:55;;;;;;;9.65;8.90;;;;;;;;;;5051632;28;20837;-86
2022/07/25 05:07:21;;;;;;;9.63;8.93;;;;;;;;;;5051499;28;20405;-86
2022/07/25 05:09:47;;;;;;;10.40;9.50;;;;;;;;;;5051495;28;20413;-85
2022/07/25 05:12:13;;;;;;;10.15;9.35;;;;;;;;;;5050629;28;20381;-86
2022/07/25 05:14:39;;;;;;;10.00;9.30;;;;;;;;;;5044953;28;20935;-85
2022/07/25 05:17:05;;;;;;;9.68;8.93;;;;;;;;;;5031874;28;20383;-85
2022/07/25 05:19:31;;;;;;;11.00;10.05;;;;;;;;;;5040984;28;20377;-85
2022/07/25 05:21:57;;;;;;;9.80;9.07;;;;;;;;;;5051447;28;20854;-84
2022/07/25 05:24:23;;;;;;;10.23;9.53;;;;;;;;;;5051273;28;20377;-86
2022/07/25 05:26:49;;;;;;;9.77;9.10;;;;;;;;;;5040899;28;20403;-85
2022/07/25 05:29:15;;;;;;;9.88;9.10;;;;;;;;;;5032846;28;20531;-86
2022/07/25 05:31:41;;;;;;;10.20;9.50;;;;;;;;;;5032756;28;20407;-84
2022/07/25 05:34:07;;;;;;;10.50;9.80;;;;;;;;;;5044352;28;20455;-86
2022/07/25 05:36:34;;;;;;;10.10;9.40;;;;;;;;;;5054024;28;20400;-85
2022/07/25 05:39:00;;;;;;;10.82;10.02;;;;;;;;;;5054517;28;20427;-86
2022/07/25 05:41:26;;;;;;;10.88;9.88;;;;;;;;;;5047912;28;20383;-85
2022/07/25 05:43:53;;;;;;;9.87;9.17;;;;;;;;;;5047176;28;21012;-85
2022/07/25 05:46:19;;;;;;;10.10;9.40;;;;;;;;;;5047655;28;20476;-85
2022/07/25 05:48:45;;;;;;;9.95;9.25;;;;;;;;;;5042979;28;20886;-85
2022/07/25 05:51:11;;;;;;;10.05;9.25;;;;;;;;;;5054561;28;20405;-86
2022/07/25 05:53:37;;;;;;;10.67;9.83;;;;;;;;;;5054577;28;20782;-85
2022/07/25 05:56:04;;;;;;;10.65;9.75;;;;;;;;;;5053612;28;20417;-86
2022/07/25 05:58:30;;;;;;;10.77;9.97;;;;;;;;;;5034511;28;20374;-85
2022/07/25 06:00:56;;;;;;;10.60;9.80;;;;;;;;;;5047760;28;20381;-85
2022/07/25 06:03:22;;;;;;;10.60;9.80;;;;;;;;;;5054231;28;20413;-85
2022/07/25 06:05:48;;;;;;;10.23;9.52;;;;;;;;;;5044879;28;20393;-90
2022/07/25 06:08:15;;;;;;;11.00;10.10;;;;;;;;;;5054309;28;20872;-89
2022/07/25 06:10:41;;;;;;;10.98;10.10;;;;;;;;;;5036267;28;20402;-87
2022/07/25 06:13:07;;;;;;;12.50;11.52;;;;;;;;;;5054282;28;20452;-88
2022/07/25 06:15:34;;;;;;;16.52;14.95;;;;;;;;;;5054378;28;20385;-88
2022/07/25 06:18:00;;;;;;;18.23;16.38;;;;;;;;;;5054204;28;20378;-90
2022/07/25 06:20:26;;;;;;;26.73;20.67;;;;;;;;;;5037416;28;20394;-86
2022/07/25 06:22:52;;;;;;;23.85;20.05;;;;;;;;;;5044315;28;20393;-87
2022/07/25 06:25:18;;;;;;;21.42;19.20;;;;;;;;;;5049642;28;20916;-87
2022/07/25 06:27:44;;;;;;;26.40;20.63;;;;;;;;;;5054398;28;20917;-88
2022/07/25 06:30:11;;;;;;;21.95;19.65;;;;;;;;;;5044902;28;20496;-85
2022/07/25 06:32:37;;;;;;;25.83;20.40;;;;;;;;;;5041724;28;20377;-85
2022/07/25 06:35:03;;;;;;;22.27;19.83;;;;;;;;;;5053908;28;20381;-85
2022/07/25 06:37:29;;;;;;;23.73;19.83;;;;;;;;;;5034533;28;20462;-85
2022/07/25 06:39:55;;;;;;;20.30;17.47;;;;;;;;;;5033278;28;20934;-83
2022/07/25 06:42:21;;;;;;;23.25;19.48;;;;;;;;;;5058994;28;20395;-79
2022/07/25 06:44:47;;;;;;;23.63;19.02;;;;;;;;;;5049845;28;20463;-80
2022/07/25 06:47:13;;;;;;;16.95;14.77;;;;;;;;;;5044644;28;20479;-79
2022/07/25 06:49:40;;;;;;;16.65;14.70;;;;;;;;;;5050421;28;20512;-80
2022/07/25 06:52:06;;;;;;;15.18;13.70;;;;;;;;;;5051156;28;20814;-79
2022/07/25 06:54:38;;;;;;;14.73;13.23;;;;;;;;;;5049654;28;20388;-82
2022/07/25 06:57:05;;;;;;;13.85;12.57;;;;;;;;;;5031646;28;20793;-80
2022/07/25 06:59:32;;;;;;;14.52;13.43;;;;;;;;;;5049675;28;20389;-80
2022/07/25 07:01:58;;;;;;;16.02;14.73;;;;;;;;;;5048747;28;20396;-79
2022/07/25 07:04:24;;;;;;;15.05;13.82;;;;;;;;;;5052507;28;20398;-79
2022/07/25 07:06:50;;;;;;;14.43;13.23;;;;;;;;;;5053293;28;20417;-79
2022/07/25 07:09:15;;;;;;;14.90;13.50;;;;;;;;;;5047401;28;20422;-79
2022/07/25 07:11:42;;;;;;;14.60;13.40;;;;;;;;;;5053271;28;20735;-80
2022/07/25 07:14:08;;;;;;;16.48;15.07;;;;;;;;;;5045242;28;20390;-79
2022/07/25 07:16:34;;;;;;;14.20;12.80;;;;;;;;;;5044837;28;20563;-79
2022/07/25 07:19:00;;;;;;;12.80;11.80;;;;;;;;;;5052975;28;20401;-80
2022/07/25 07:21:26;;;;;;;12.90;11.80;;;;;;;;;;5053070;28;20464;-79
2022/07/25 07:23:52;;;;;;;16.85;15.23;;;;;;;;;;5052775;28;20856;-79
2022/07/25 07:26:18;;;;;;;16.67;13.93;;;;;;;;;;5052851;28;20377;-79
2022/07/25 07:28:44;;;;;;;17.05;13.07;;;;;;;;;;5052568;28;20739;-80
2022/07/25 07:31:10;;;;;;;15.75;14.13;;;;;;;;;;5034956;28;20417;-80
2022/07/25 07:33:37;;;;;;;14.88;13.57;;;;;;;;;;5052666;28;20382;-81
2022/07/25 07:36:03;;;;;;;22.95;14.50;;;;;;;;;;5049971;28;20755;-81
2022/07/25 07:38:29;;;;;;;12.75;11.50;;;;;;;;;;5051674;28;20413;-81
2022/07/25 07:40:55;;;;;;;12.85;11.93;;;;;;;;;;5052551;28;20875;-81
2022/07/25 07:43:21;;;;;;;12.57;11.68;;;;;;;;;;5052599;28;20472;-81
2022/07/25 07:45:47;;;;;;;13.10;12.05;;;;;;;;;;5052460;28;20456;-80
2022/07/25 07:48:13;;;;;;;12.77;11.85;;;;;;;;;;5043872;28;20789;-83
2022/07/25 07:50:39;;;;;;;12.60;11.70;;;;;;;;;;5052439;28;20424;-83
2022/07/25 07:53:06;;;;;;;12.30;11.40;;;;;;;;;;5047856;28;20375;-82
2022/07/25 07:55:44;;;;;;;13.40;12.40;;;;;;;;;;5031171;28;20427;-83
2022/07/25 07:58:16;;;;;;;12.93;11.77;;;;;;;;;;5051310;28;20373;-83
2022/07/25 08:00:44;;;;;;;11.83;11.13;;;;;;;;;;5051234;28;20789;-83
2022/07/25 08:03:10;;;;;;;12.60;11.55;;;;;;;;;;5051325;28;20443;-82
2022/07/25 08:05:36;;;;;;;12.70;11.60;;;;;;;;;;5038401;28;20472;-81
2022/07/25 08:08:02;;;;;;;11.95;11.15;;;;;;;;;;5052311;28;20792;-81
2022/07/25 08:10:30;;;;;;;12.18;11.38;;;;;;;;;;5052089;28;20953;-81
2022/07/25 08:12:56;;;;;;;12.20;11.30;;;;;;;;;;5052545;28;20413;-81
2022/07/25 08:15:22;;;;;;;11.98;10.98;;;;;;;;;;5052101;28;20385;-81
2022/07/25 08:17:50;;;;;;;12.80;11.57;;;;;;;;;;5052027;28;20409;-81
2022/07/25 08:20:17;;;;;;;11.90;11.10;;;;;;;;;;5052093;28;20377;-81
2022/07/25 08:22:44;;;;;;;12.30;11.27;;;;;;;;;;5052100;28;20385;-81
2022/07/25 08:25:13;;;;;;;12.48;11.52;;;;;;;;;;5052080;28;20910;-81
2022/07/25 08:27:39;;;;;;;11.63;10.80;;;;;;;;;;5051834;28;20398;-81
2022/07/25 08:30:06;;;;;;;12.10;11.20;;;;;;;;;;5034116;28;20968;-81
2022/07/25 08:32:32;;;;;;;11.55;10.75;;;;;;;;;;5051909;28;20427;-81
2022/07/25 08:34:58;;;;;;;11.95;10.95;;;;;;;;;;5051950;28;20374;-81
2022/07/25 08:37:24;;;;;;;11.35;10.55;;;;;;;;;;5051720;28;20374;-81
2022/07/25 08:39:51;;;;;;;11.02;10.32;;;;;;;;;;5052165;28;20382;-81
2022/07/25 08:42:18;;;;;;;11.23;10.52;;;;;;;;;;5048482;28;20381;-81
2022/07/25 08:44:46;;;;;;;11.23;10.53;;;;;;;;;;5037933;28;20467;-82
2022/07/25 08:47:14;;;;;;;12.43;11.40;;;;;;;;;;5044899;28;20383;-82
2022/07/25 08:49:40;;;;;;;11.77;10.77;;;;;;;;;;5050150;28;20401;-81
2022/07/25 08:52:08;;;;;;;11.90;11.00;;;;;;;;;;5051824;28;20385;-80
2022/07/25 08:54:35;;;;;;;12.13;11.05;;;;;;;;;;5051671;28;20386;-80
2022/07/25 08:57:01;;;;;;;11.40;10.50;;;;;;;;;;5051656;28;20559;-80
2022/07/25 08:59:27;;;;;;;11.40;10.60;;;;;;;;;;5051868;28;20377;-80
2022/07/25 09:01:53;;;;;;;11.32;10.52;;;;;;;;;;5051406;28;20381;-80
2022/07/25 09:04:19;;;;;;;11.48;10.45;;;;;;;;;;5051674;28;20875;-80
2022/07/25 09:06:49;;;;;;;11.45;10.65;;;;;;;;;;5051441;28;20396;-80
2022/07/25 09:09:15;;;;;;;10.95;9.95;;;;;;;;;;5052414;28;20431;-80
2022/07/25 09:11:41;;;;;;;10.90;10.10;;;;;;;;;;5055635;28;20392;-81
2022/07/25 09:14:09;;;;;;;10.77;9.88;;;;;;;;;;5052108;28;20378;-80
2022/07/25 09:16:42;;;;;;;10.85;9.98;;;;;;;;;;5055467;28;20943;-80
2022/07/25 09:19:12;;;;;;;20.45;10.20;;;;;;;;;;5037335;28;20732;-80
2022/07/25 09:21:39;;;;;;;19.60;9.35;;;;;;;;;;5054986;28;20381;-80
2022/07/25 09:24:14;;;;;;;31.33;10.40;;;;;;;;;;5049154;28;20375;-80
2022/07/25 09:26:53;;;;;;;10.10;9.23;;;;;;;;;;5035433;28;20807;-80
2022/07/25 09:29:23;;;;;;;9.82;9.15;;;;;;;;;;5049964;28;20431;-80
2022/07/25 09:31:50;;;;;;;9.75;8.98;;;;;;;;;;5052531;28;20421;-80
2022/07/25 09:34:17;;;;;;;9.75;8.85;;;;;;;;;;5054873;28;20461;-81
2022/07/25 09:36:53;;;;;;;9.30;8.60;;;;;;;;;;5054885;28;20377;-81
2022/07/25 09:39:19;;;;;;;10.63;8.57;;;;;;;;;;5054821;28;20380;-81
2022/07/25 09:41:48;;;;;;;13.68;8.40;;;;;;;;;;5045486;28;20381;-81
2022/07/25 09:44:21;;;;;;;8.77;8.02;;;;;;;;;;5048487;28;20440;-80
2022/07/25 09:46:48;;;;;;;8.93;8.23;;;;;;;;;;5053501;28;20419;-80
2022/07/25 09:49:14;;;;;;;9.38;8.10;;;;;;;;;;5051170;28;20383;-80
2022/07/25 09:51:40;;;;;;;9.20;8.40;;;;;;;;;;5053895;28;20389;-80
2022/07/25 09:54:07;;;;;;;8.40;7.80;;;;;;;;;;5036444;28;20816;-80
2022/07/25 09:56:34;;;;;;;10.73;7.72;;;;;;;;;;5054681;28;20889;-80
2022/07/25 09:59:00;;;;;;;8.80;8.07;;;;;;;;;;5054498;28;20473;-80
2022/07/25 10:01:37;;;;;;;9.30;8.70;;;;;;;;;;5054408;28;20385;-81
2022/07/25 10:04:12;;;;;;;10.00;9.07;;;;;;;;;;5053434;28;20912;-81
2022/07/25 10:06:39;;;;;;;9.25;8.45;;;;;;;;;;5053677;28;20389;-81
2022/07/25 10:09:12;;;;;;;9.07;8.25;;;;;;;;;;5054298;28;20511;-80
2022/07/25 10:11:38;;;;;;;8.55;7.93;;;;;;;;;;5054298;28;20739;-81
2022/07/25 10:14:11;;;;;;;8.45;7.65;;;;;;;;;;5053859;28;20385;-80
2022/07/25 10:16:47;;;;;;;8.25;7.70;;;;;;;;;;5054045;28;20877;-81
2022/07/25 10:19:14;;;;;;;9.70;9.00;;;;;;;;;;5053173;28;20382;-81
2022/07/25 10:21:41;;;;;;;8.73;8.05;;;;;;;;;;5049727;28;20724;-82
2022/07/25 10:24:08;;;;;;;7.45;6.95;;;;;;;;;;5051747;28;20788;-81
2022/07/25 10:26:36;;;;;;;6.90;6.32;;;;;;;;;;5052373;28;20381;-81
2022/07/25 10:29:08;;;;;;;6.80;6.30;;;;;;;;;;5048260;28;20877;-81
2022/07/25 10:31:35;;;;;;;7.70;7.10;;;;;;;;;;5043663;28;20524;-81
2022/07/25 10:34:12;;;;;;;6.43;5.93;;;;;;;;;;5053794;28;20866;-81
2022/07/25 10:36:54;;;;;;;6.88;6.25;;;;;;;;;;5053262;28;20424;-81
2022/07/25 10:39:21;;;;;;;6.67;6.10;;;;;;;;;;5050608;28;20374;-82
2022/07/25 10:41:55;;;;;;;6.72;6.15;;;;;;;;;;5051742;28;20365;-82
2022/07/25 10:44:21;;;;;;;6.22;5.72;;;;;;;;;;5053860;28;20433;-82
2022/07/25 10:46:49;;;;;;;6.68;5.97;;;;;;;;;;5048567;28;20367;-82
2022/07/25 10:49:25;;;;;;;6.45;5.68;;;;;;;;;;5048589;28;20378;-82
2022/07/25 10:51:56;;;;;;;6.60;6.10;;;;;;;;;;5051496;28;20388;-82
2022/07/25 10:54:22;;;;;;;6.50;5.90;;;;;;;;;;5053602;28;20739;-82
2022/07/25 10:56:55;;;;;;;6.10;5.70;;;;;;;;;;5053406;28;20413;-82
2022/07/25 10:59:40;;;;;;;6.40;5.80;;;;;;;;;;5052052;28;20463;-82
2022/07/25 11:02:08;;;;;;;5.70;5.30;;;;;;;;;;5050031;28;20381;-82
2022/07/25 11:04:34;;;;;;;5.88;5.30;;;;;;;;;;5034001;28;20821;-82
2022/07/25 11:07:13;;;;;;;5.18;4.78;;;;;;;;;;5051550;28;20966;-81
2022/07/25 11:09:40;;;;;;;5.50;5.10;;;;;;;;;;5050914;28;20551;-82
2022/07/25 11:12:06;;;;;;;5.15;4.85;;;;;;;;;;5047060;28;20510;-82
2022/07/25 11:14:38;;;;;;;5.40;5.00;;;;;;;;;;5051574;28;20383;-83
2022/07/25 11:17:17;;;;;;;4.70;4.30;;;;;;;;;;5050885;28;20393;-83
2022/07/25 11:19:44;;;;;;;5.10;4.70;;;;;;;;;;5051172;28;20394;-82
2022/07/25 11:22:10;;;;;;;4.80;4.40;;;;;;;;;;5049159;28;20930;-81
2022/07/25 11:24:39;;;;;;;4.60;4.20;;;;;;;;;;5052824;28;20484;-82
2022/07/25 11:27:06;;;;;;;6.15;4.50;;;;;;;;;;5051592;28;20377;-81
2022/07/25 11:29:33;;;;;;;4.40;4.00;;;;;;;;;;5051597;28;20459;-82
2022/07/25 11:32:03;;;;;;;4.30;4.00;;;;;;;;;;5051374;28;20785;-81
2022/07/25 11:34:30;;;;;;;6.55;4.80;;;;;;;;;;5052112;28;20503;-81
2022/07/25 11:36:57;;;;;;;4.70;4.40;;;;;;;;;;5052626;28;20433;-82
2022/07/25 11:39:28;;;;;;;4.97;4.67;;;;;;;;;;5033128;28;20736;-82
2022/07/25 11:42:15;;;;;;;4.60;4.13;;;;;;;;;;5051375;28;20393;-82
2022/07/25 11:44:51;;;;;;;4.60;4.25;;;;;;;;;;5051715;28;20943;-81
2022/07/25 11:47:33;;;;;;;8.80;4.25;;;;;;;;;;5044946;28;20383;-81
2022/07/25 11:50:00;;;;;;;4.80;4.50;;;;;;;;;;5039668;28;20436;-81
2022/07/25 11:52:31;;;;;;;4.70;4.40;;;;;;;;;;5052427;28;20385;-82
2022/07/25 11:54:58;;;;;;;5.25;4.85;;;;;;;;;;5052698;28;20399;-81
2022/07/25 11:57:25;;;;;;;4.65;4.35;;;;;;;;;;5052249;28;20431;-81
2022/07/25 11:59:52;;;;;;;4.90;4.57;;;;;;;;;;5052248;28;20386;-81
2022/07/25 12:02:25;;;;;;;4.88;4.45;;;;;;;;;;5051734;28;20505;-81
2022/07/25 12:04:55;;;;;;;4.70;4.40;;;;;;;;;;5052253;28;20384;-82
2022/07/25 12:07:21;;;;;;;7.82;4.35;;;;;;;;;;5052119;28;20377;-82
2022/07/25 12:09:56;;;;;;;4.90;4.32;;;;;;;;;;5034233;28;20847;-82
2022/07/25 12:12:22;;;;;;;5.03;4.22;;;;;;;;;;5052115;28;20412;-81
2022/07/25 12:14:48;;;;;;;4.45;4.15;;;;;;;;;;5052166;28;20377;-82
2022/07/25 12:17:14;;;;;;;5.03;4.38;;;;;;;;;;5051936;28;20377;-82
2022/07/25 12:19:44;;;;;;;5.15;4.75;;;;;;;;;;5042773;28;20388;-83
2022/07/25 12:22:10;;;;;;;5.37;4.40;;;;;;;;;;5048072;28;20382;-82
2022/07/25 12:24:36;;;;;;;5.00;4.60;;;;;;;;;;5050046;28;20386;-82
2022/07/25 12:27:02;;;;;;;5.00;4.60;;;;;;;;;;5050753;28;20808;-82
2022/07/25 12:29:28;;;;;;;5.00;4.70;;;;;;;;;;5050750;28;20391;-82
2022/07/25 12:31:55;;;;;;;4.45;4.15;;;;;;;;;;5050728;28;20370;-82
2022/07/25 12:34:21;;;;;;;5.75;5.30;;;;;;;;;;5050717;28;20471;-82
2022/07/25 12:36:47;;;;;;;4.80;4.45;;;;;;;;;;5050522;28;20793;-82
2022/07/25 12:39:13;;;;;;;5.40;4.10;;;;;;;;;;5051733;28;20378;-82
2022/07/25 12:41:41;;;;;;;4.88;4.40;;;;;;;;;;5050840;28;20473;-82
2022/07/25 12:44:07;;;;;;;4.30;4.00;;;;;;;;;;5045902;28;20403;-82
2022/07/25 12:46:33;;;;;;;4.53;4.22;;;;;;;;;;5054282;28;20395;-82
2022/07/25 12:48:59;;;;;;;4.93;4.60;;;;;;;;;;5051164;28;20377;-82
2022/07/25 12:51:25;;;;;;;4.93;4.60;;;;;;;;;;5055706;28;20405;-82
2022/07/25 12:53:51;;;;;;;4.65;4.25;;;;;;;;;;5055645;28;20416;-82
2022/07/25 12:56:17;;;;;;;4.73;4.33;;;;;;;;;;5037635;28;20428;-82
2022/07/25 12:58:43;;;;;;;4.70;4.30;;;;;;;;;;5054949;28;20568;-82
2022/07/25 13:01:12;;;;;;;4.93;4.43;;;;;;;;;;5055564;28;20409;-82
2022/07/25 13:03:38;;;;;;;4.55;4.20;;;;;;;;;;5055037;28;20858;-82
2022/07/25 13:06:04;;;;;;;4.78;4.38;;;;;;;;;;5053146;28;20396;-82
2022/07/25 13:08:30;;;;;;;4.88;4.45;;;;;;;;;;5054110;28;20389;-82
2022/07/25 13:10:56;;;;;;;4.70;4.40;;;;;;;;;;5056918;28;20416;-82
2022/07/25 13:13:22;;;;;;;5.07;4.78;;;;;;;;;;5056897;28;20412;-82
2022/07/25 13:15:48;;;;;;;5.78;5.38;;;;;;;;;;5053045;28;20389;-83
2022/07/25 13:18:14;;;;;;;5.47;5.07;;;;;;;;;;5051977;28;20884;-82
2022/07/25 13:20:40;;;;;;;5.65;5.25;;;;;;;;;;5053664;28;20408;-82
2022/07/25 13:23:06;;;;;;;5.60;5.20;;;;;;;;;;5054305;28;20862;-82
2022/07/25 13:25:33;;;;;;;5.50;5.00;;;;;;;;;;5042607;28;20441;-82
2022/07/25 13:27:59;;;;;;;5.28;4.88;;;;;;;;;;5055363;28;20385;-83
2022/07/25 13:30:25;;;;;;;5.40;5.10;;;;;;;;;;5037734;28;20411;-83
2022/07/25 13:32:51;;;;;;;5.53;5.13;;;;;;;;;;5054909;28;20401;-82
2022/07/25 13:35:17;;;;;;;5.78;5.38;;;;;;;;;;5053104;28;20432;-83
2022/07/25 13:37:43;;;;;;;5.57;5.18;;;;;;;;;;5054754;28;20400;-83
2022/07/25 13:40:09;;;;;;;5.90;5.50;;;;;;;;;;5054333;28;20383;-83
2022/07/25 13:42:35;;;;;;;5.80;5.40;;;;;;;;;;5053811;28;20750;-83
2022/07/25 13:45:02;;;;;;;5.85;5.28;;;;;;;;;;5048411;28;20801;-82
2022/07/25 13:47:29;;;;;;;5.80;5.40;;;;;;;;;;5040459;28;20390;-83
2022/07/25 13:49:55;;;;;;;5.60;5.20;;;;;;;;;;5051874;28;20431;-84
2022/07/25 13:52:21;;;;;;;5.55;5.15;;;;;;;;;;5054615;28;20914;-83
2022/07/25 13:54:47;;;;;;;5.50;5.10;;;;;;;;;;5052589;28;20465;-84
2022/07/25 13:57:13;;;;;;;6.97;5.25;;;;;;;;;;5051667;28;20464;-83
2022/07/25 13:59:39;;;;;;;10.32;5.53;;;;;;;;;;5052424;28;20496;-83
2022/07/25 14:02:05;;;;;;;6.33;5.00;;;;;;;;;;5053214;28;20512;-84
2022/07/25 14:04:31;;;;;;;5.28;4.85;;;;;;;;;;5052984;28;20405;-83
2022/07/25 14:06:58;;;;;;;5.43;4.93;;;;;;;;;;5047192;28;20382;-83
2022/07/25 14:09:24;;;;;;;5.40;5.07;;;;;;;;;;5054297;28;20384;-83
2022/07/25 14:11:50;;;;;;;5.32;4.85;;;;;;;;;;5036172;28;20405;-83
2022/07/25 14:14:16;;;;;;;5.25;4.85;;;;;;;;;;5052411;28;20434;-83
2022/07/25 14:16:42;;;;;;;5.32;4.90;;;;;;;;;;5052707;28;20734;-84
2022/07/25 14:19:09;;;;;;;5.57;5.07;;;;;;;;;;5052914;28;20382;-83
2022/07/25 14:21:35;;;;;;;6.10;5.43;;;;;;;;;;5052987;28;20783;-83
2022/07/25 14:24:01;;;;;;;5.30;4.90;;;;;;;;;;5054115;28;20466;-83
2022/07/25 14:26:29;;;;;;;5.60;5.18;;;;;;;;;;5046758;28;20403;-84
2022/07/25 14:28:56;;;;;;;5.67;5.17;;;;;;;;;;5053498;28;20381;-84
2022/07/25 14:31:22;;;;;;;5.00;4.70;;;;;;;;;;5053493;28;20441;-83
2022/07/25 14:33:48;;;;;;;5.35;5.05;;;;;;;;;;5044377;28;20401;-83